sensor_id;sensor_type;location;lat;lon;timestamp;temperature;humidity
5899;DHT22;2975;50.956;6.962;2023-08-31T00:01:47;13.60;99.90
5899;DHT22;2975;50.956;6.962;2023-08-31T00:04:14;13.60;99.90
5899;DHT22;2975;50.956;6.962;2023-08-31T00:06:43;13.60;99.90
5899;DHT22;2975;50.956;6.962;2023-08-31T00:09:11;13.60;99.90
5899;DHT22;2975;50.956;6.962;2023-08-31T00:11:37;13.60;99.90
5899;DHT22;2975;50.956;6.962;2023-08-31T00:14:03;13.60;99.90
5899;DHT22;2975;50.956;6.962;2023-08-31T00:16:29;13.60;99.90
5899;DHT22;2975;50.956;6.962;2023-08-31T00:18:56;13.50;99.90
5899;DHT22;2975;50.956;6.962;2023-08-31T00:21:22;13.50;99.90
5899;DHT22;2975;50.956;6.962;2023-08-31T00:23:48;13.40;99.90
5899;DHT22;2975;50.956;6.962;2023-08-31T00:26:14;13.40;99.90
5899;DHT22;2975;50.956;6.962;2023-08-31T00:28:40;13.30;99.90
5899;DHT22;2975;50.956;6.962;2023-08-31T00:31:08;13.30;99.90
5899;DHT22;2975;50.956;6.962;2023-08-31T00:33:33;13.20;99.90
5899;DHT22;2975;50.956;6.962;2023-08-31T00:36:00;13.10;99.90
5899;DHT22;2975;50.956;6.962;2023-08-31T00:38:30;13.10;99.90
5899;DHT22;2975;50.956;6.962;2023-08-31T00:40:56;13.00;99.90
5899;DHT22;2975;50.956;6.962;2023-08-31T00:43:21;13.00;99.90
5899;DHT22;2975;50.956;6.962;2023-08-31T00:45:50;13.00;99.90
5899;DHT22;2975;50.956;6.962;2023-08-31T00:48:17;12.90;99.90
5899;DHT22;2975;50.956;6.962;2023-08-31T00:50:46;12.90;99.90
5899;DHT22;2975;50.956;6.962;2023-08-31T00:53:13;12.90;99.90
5899;DHT22;2975;50.956;6.962;2023-08-31T00:55:39;12.90;99.90
5899;DHT22;2975;50.956;6.962;2023-08-31T00:58:06;12.80;99.90
5899;DHT22;2975;50.956;6.962;2023-08-31T01:00:45;12.80;99.90
5899;DHT22;2975;50.956;6.962;2023-08-31T01:03:13;12.80;99.90
5899;DHT22;2975;50.956;6.962;2023-08-31T01:06:00;12.80;99.90
5899;DHT22;2975;50.956;6.962;2023-08-31T01:14:25;12.80;99.90
5899;DHT22;2975;50.956;6.962;2023-08-31T01:16:51;12.80;99.90
5899;DHT22;2975;50.956;6.962;2023-08-31T01:22:13;12.80;99.90
5899;DHT22;2975;50.956;6.962;2023-08-31T01:24:41;12.90;99.90
5899;DHT22;2975;50.956;6.962;2023-08-31T01:27:06;12.80;99.90
5899;DHT22;2975;50.956;6.962;2023-08-31T01:29:33;12.80;99.90
5899;DHT22;2975;50.956;6.962;2023-08-31T01:31:58;12.70;99.90
5899;DHT22;2975;50.956;6.962;2023-08-31T01:34:24;12.60;99.90
5899;DHT22;2975;50.956;6.962;2023-08-31T01:36:56;12.60;99.90
5899;DHT22;2975;50.956;6.962;2023-08-31T01:39:39;12.50;99.90
5899;DHT22;2975;50.956;6.962;2023-08-31T01:42:11;12.50;99.90
5899;DHT22;2975;50.956;6.962;2023-08-31T01:44:39;12.40;99.90
5899;DHT22;2975;50.956;6.962;2023-08-31T01:47:06;12.40;99.90
5899;DHT22;2975;50.956;6.962;2023-08-31T01:49:40;12.40;99.90
5899;DHT22;2975;50.956;6.962;2023-08-31T01:52:06;12.30;99.90
5899;DHT22;2975;50.956;6.962;2023-08-31T01:54:32;12.30;99.90
5899;DHT22;2975;50.956;6.962;2023-08-31T01:56:59;12.20;99.90
5899;DHT22;2975;50.956;6.962;2023-08-31T01:59:24;12.20;99.90
5899;DHT22;2975;50.956;6.962;2023-08-31T02:01:50;12.20;99.90
5899;DHT22;2975;50.956;6.962;2023-08-31T02:04:16;12.10;99.90
5899;DHT22;2975;50.956;6.962;2023-08-31T02:06:42;12.10;99.90
5899;DHT22;2975;50.956;6.962;2023-08-31T02:09:08;12.10;99.90
5899;DHT22;2975;50.956;6.962;2023-08-31T02:11:33;12.10;99.90
5899;DHT22;2975;50.956;6.962;2023-08-31T02:14:06;12.10;99.90
5899;DHT22;2975;50.956;6.962;2023-08-31T02:16:33;12.10;99.90
5899;DHT22;2975;50.956;6.962;2023-08-31T02:18:59;12.10;99.90
5899;DHT22;2975;50.956;6.962;2023-08-31T02:21:24;12.00;99.90
5899;DHT22;2975;50.956;6.962;2023-08-31T02:23:50;12.00;99.90
5899;DHT22;2975;50.956;6.962;2023-08-31T02:26:15;12.00;99.90
5899;DHT22;2975;50.956;6.962;2023-08-31T02:28:41;12.00;99.90
5899;DHT22;2975;50.956;6.962;2023-08-31T02:31:07;12.00;99.90
5899;DHT22;2975;50.956;6.962;2023-08-31T02:33:32;11.90;99.90
5899;DHT22;2975;50.956;6.962;2023-08-31T02:35:58;11.90;99.90
5899;DHT22;2975;50.956;6.962;2023-08-31T02:38:23;11.80;99.90
5899;DHT22;2975;50.956;6.962;2023-08-31T02:40:49;11.80;99.90
5899;DHT22;2975;50.956;6.962;2023-08-31T02:43:15;11.70;99.90
5899;DHT22;2975;50.956;6.962;2023-08-31T02:45:41;11.70;99.90
5899;DHT22;2975;50.956;6.962;2023-08-31T02:48:07;11.70;99.90
5899;DHT22;2975;50.956;6.962;2023-08-31T02:50:34;11.70;99.90
5899;DHT22;2975;50.956;6.962;2023-08-31T02:53:00;11.60;99.90
5899;DHT22;2975;50.956;6.962;2023-08-31T02:55:26;11.60;99.90
5899;DHT22;2975;50.956;6.962;2023-08-31T02:57:51;11.70;99.90
5899;DHT22;2975;50.956;6.962;2023-08-31T03:00:17;11.70;99.90
5899;DHT22;2975;50.956;6.962;2023-08-31T03:02:47;11.90;99.90
5899;DHT22;2975;50.956;6.962;2023-08-31T03:05:13;12.00;99.90
5899;DHT22;2975;50.956;6.962;2023-08-31T03:07:38;12.00;99.90
5899;DHT22;2975;50.956;6.962;2023-08-31T03:10:04;12.00;99.90
5899;DHT22;2975;50.956;6.962;2023-08-31T03:12:30;12.00;99.90
5899;DHT22;2975;50.956;6.962;2023-08-31T03:14:56;11.90;99.90
5899;DHT22;2975;50.956;6.962;2023-08-31T03:17:21;11.90;99.90
5899;DHT22;2975;50.956;6.962;2023-08-31T03:19:47;11.90;99.90
5899;DHT22;2975;50.956;6.962;2023-08-31T03:22:12;11.80;99.90
5899;DHT22;2975;50.956;6.962;2023-08-31T03:24:38;11.80;99.90
5899;DHT22;2975;50.956;6.962;2023-08-31T03:27:04;11.80;99.90
5899;DHT22;2975;50.956;6.962;2023-08-31T03:29:29;11.80;99.90
5899;DHT22;2975;50.956;6.962;2023-08-31T03:31:57;11.80;99.90
5899;DHT22;2975;50.956;6.962;2023-08-31T03:34:23;11.80;99.90
5899;DHT22;2975;50.956;6.962;2023-08-31T03:36:48;11.90;99.90
5899;DHT22;2975;50.956;6.962;2023-08-31T03:39:15;12.10;99.90
5899;DHT22;2975;50.956;6.962;2023-08-31T03:41:41;12.20;99.90
5899;DHT22;2975;50.956;6.962;2023-08-31T03:44:06;12.30;99.90
5899;DHT22;2975;50.956;6.962;2023-08-31T03:46:32;12.40;99.90
5899;DHT22;2975;50.956;6.962;2023-08-31T03:48:58;12.50;99.90
5899;DHT22;2975;50.956;6.962;2023-08-31T03:51:23;12.60;99.90
5899;DHT22;2975;50.956;6.962;2023-08-31T03:53:49;12.70;99.90
5899;DHT22;2975;50.956;6.962;2023-08-31T03:56:14;12.80;99.90
5899;DHT22;2975;50.956;6.962;2023-08-31T03:58:40;12.90;99.90
5899;DHT22;2975;50.956;6.962;2023-08-31T04:01:06;12.90;99.90
5899;DHT22;2975;50.956;6.962;2023-08-31T04:03:31;13.00;99.90
5899;DHT22;2975;50.956;6.962;2023-08-31T04:05:57;13.00;99.90
5899;DHT22;2975;50.956;6.962;2023-08-31T04:08:22;13.10;99.90
5899;DHT22;2975;50.956;6.962;2023-08-31T04:10:48;13.10;99.90
5899;DHT22;2975;50.956;6.962;2023-08-31T04:13:13;13.10;99.90
5899;DHT22;2975;50.956;6.962;2023-08-31T04:15:39;13.20;99.90
5899;DHT22;2975;50.956;6.962;2023-08-31T04:18:05;13.10;99.90
5899;DHT22;2975;50.956;6.962;2023-08-31T04:20:32;13.20;99.90
5899;DHT22;2975;50.956;6.962;2023-08-31T04:22:58;13.10;99.90
5899;DHT22;2975;50.956;6.962;2023-08-31T04:25:24;13.10;99.90
5899;DHT22;2975;50.956;6.962;2023-08-31T04:27:49;13.00;99.90
5899;DHT22;2975;50.956;6.962;2023-08-31T04:30:15;13.00;99.90
5899;DHT22;2975;50.956;6.962;2023-08-31T04:32:41;13.00;99.90
5899;DHT22;2975;50.956;6.962;2023-08-31T04:35:07;13.10;99.90
5899;DHT22;2975;50.956;6.962;2023-08-31T04:37:33;13.10;99.90
5899;DHT22;2975;50.956;6.962;2023-08-31T04:39:59;13.10;99.90
5899;DHT22;2975;50.956;6.962;2023-08-31T04:42:24;13.20;99.90
5899;DHT22;2975;50.956;6.962;2023-08-31T04:44:50;13.20;99.90
5899;DHT22;2975;50.956;6.962;2023-08-31T04:47:16;13.20;99.90
5899;DHT22;2975;50.956;6.962;2023-08-31T04:49:42;13.20;99.90
5899;DHT22;2975;50.956;6.962;2023-08-31T04:52:08;13.20;99.90
5899;DHT22;2975;50.956;6.962;2023-08-31T04:54:33;13.20;99.90
5899;DHT22;2975;50.956;6.962;2023-08-31T04:56:59;13.20;99.90
5899;DHT22;2975;50.956;6.962;2023-08-31T04:59:24;13.20;99.90
5899;DHT22;2975;50.956;6.962;2023-08-31T05:01:50;13.20;99.90
5899;DHT22;2975;50.956;6.962;2023-08-31T05:04:15;13.10;99.90
5899;DHT22;2975;50.956;6.962;2023-08-31T05:06:41;13.00;99.90
5899;DHT22;2975;50.956;6.962;2023-08-31T05:09:07;13.00;99.90
5899;DHT22;2975;50.956;6.962;2023-08-31T05:11:33;12.90;99.90
5899;DHT22;2975;50.956;6.962;2023-08-31T05:13:59;12.90;99.90
5899;DHT22;2975;50.956;6.962;2023-08-31T05:16:24;12.80;99.90
5899;DHT22;2975;50.956;6.962;2023-08-31T05:18:50;12.80;99.90
5899;DHT22;2975;50.956;6.962;2023-08-31T05:21:15;12.90;99.90
5899;DHT22;2975;50.956;6.962;2023-08-31T05:23:41;13.00;99.90
5899;DHT22;2975;50.956;6.962;2023-08-31T05:26:07;13.20;99.90
5899;DHT22;2975;50.956;6.962;2023-08-31T05:28:32;14.00;99.90
5899;DHT22;2975;50.956;6.962;2023-08-31T05:31:00;14.90;99.90
5899;DHT22;2975;50.956;6.962;2023-08-31T05:33:26;15.70;99.90
5899;DHT22;2975;50.956;6.962;2023-08-31T05:35:53;16.50;99.90
5899;DHT22;2975;50.956;6.962;2023-08-31T05:38:19;17.30;99.90
5899;DHT22;2975;50.956;6.962;2023-08-31T05:40:44;18.30;99.90
5899;DHT22;2975;50.956;6.962;2023-08-31T05:43:14;19.10;99.90
5899;DHT22;2975;50.956;6.962;2023-08-31T05:45:40;20.00;99.90
5899;DHT22;2975;50.956;6.962;2023-08-31T05:48:06;20.60;99.90
5899;DHT22;2975;50.956;6.962;2023-08-31T05:50:32;21.20;99.90
5899;DHT22;2975;50.956;6.962;2023-08-31T05:52:58;21.80;99.50
5899;DHT22;2975;50.956;6.962;2023-08-31T05:55:24;22.20;98.90
5899;DHT22;2975;50.956;6.962;2023-08-31T05:57:49;22.70;96.90
5899;DHT22;2975;50.956;6.962;2023-08-31T06:00:15;23.00;96.50
5899;DHT22;2975;50.956;6.962;2023-08-31T06:02:42;23.50;95.10
5899;DHT22;2975;50.956;6.962;2023-08-31T06:05:10;23.60;91.40
5899;DHT22;2975;50.956;6.962;2023-08-31T06:07:37;23.30;92.30
5899;DHT22;2975;50.956;6.962;2023-08-31T06:10:04;21.80;93.70
5899;DHT22;2975;50.956;6.962;2023-08-31T06:12:30;20.20;97.40
5899;DHT22;2975;50.956;6.962;2023-08-31T06:14:55;18.80;99.90
5899;DHT22;2975;50.956;6.962;2023-08-31T06:17:21;17.80;99.90
5899;DHT22;2975;50.956;6.962;2023-08-31T06:19:46;17.30;99.90
5899;DHT22;2975;50.956;6.962;2023-08-31T06:22:12;16.90;99.90
5899;DHT22;2975;50.956;6.962;2023-08-31T06:24:38;16.60;99.90
5899;DHT22;2975;50.956;6.962;2023-08-31T06:27:04;16.10;99.90
5899;DHT22;2975;50.956;6.962;2023-08-31T06:29:29;15.80;99.90
5899;DHT22;2975;50.956;6.962;2023-08-31T06:31:55;15.60;99.90
5899;DHT22;2975;50.956;6.962;2023-08-31T06:34:20;15.50;99.90
5899;DHT22;2975;50.956;6.962;2023-08-31T06:36:46;15.50;99.90
5899;DHT22;2975;50.956;6.962;2023-08-31T06:39:12;15.50;99.90
5899;DHT22;2975;50.956;6.962;2023-08-31T06:41:37;15.50;99.90
5899;DHT22;2975;50.956;6.962;2023-08-31T06:44:03;15.40;99.90
5899;DHT22;2975;50.956;6.962;2023-08-31T06:46:30;15.40;99.90
5899;DHT22;2975;50.956;6.962;2023-08-31T06:48:59;15.40;99.90
5899;DHT22;2975;50.956;6.962;2023-08-31T06:51:24;15.40;99.90
5899;DHT22;2975;50.956;6.962;2023-08-31T06:53:50;15.50;99.90
5899;DHT22;2975;50.956;6.962;2023-08-31T06:56:16;15.50;99.90
5899;DHT22;2975;50.956;6.962;2023-08-31T06:58:42;15.60;99.90
5899;DHT22;2975;50.956;6.962;2023-08-31T07:01:08;15.70;99.90
5899;DHT22;2975;50.956;6.962;2023-08-31T07:03:34;15.90;99.90
5899;DHT22;2975;50.956;6.962;2023-08-31T07:06:00;16.00;99.90
5899;DHT22;2975;50.956;6.962;2023-08-31T07:08:25;16.10;99.90
5899;DHT22;2975;50.956;6.962;2023-08-31T07:10:51;16.20;99.90
5899;DHT22;2975;50.956;6.962;2023-08-31T07:13:17;16.20;99.90
5899;DHT22;2975;50.956;6.962;2023-08-31T07:15:42;16.20;99.90
5899;DHT22;2975;50.956;6.962;2023-08-31T07:18:08;16.30;99.90
5899;DHT22;2975;50.956;6.962;2023-08-31T07:20:34;16.30;99.90
5899;DHT22;2975;50.956;6.962;2023-08-31T07:23:00;16.30;99.90
5899;DHT22;2975;50.956;6.962;2023-08-31T07:25:25;16.30;99.90
5899;DHT22;2975;50.956;6.962;2023-08-31T07:27:51;16.50;99.90
5899;DHT22;2975;50.956;6.962;2023-08-31T07:30:17;16.90;99.90
5899;DHT22;2975;50.956;6.962;2023-08-31T07:32:43;17.00;99.90
5899;DHT22;2975;50.956;6.962;2023-08-31T07:35:08;16.90;99.90
5899;DHT22;2975;50.956;6.962;2023-08-31T07:37:34;17.00;99.90
5899;DHT22;2975;50.956;6.962;2023-08-31T07:40:00;17.30;99.90
5899;DHT22;2975;50.956;6.962;2023-08-31T07:42:26;17.60;99.90
5899;DHT22;2975;50.956;6.962;2023-08-31T07:44:52;18.00;99.90
5899;DHT22;2975;50.956;6.962;2023-08-31T07:47:17;18.20;99.90
5899;DHT22;2975;50.956;6.962;2023-08-31T07:49:43;18.00;99.90
5899;DHT22;2975;50.956;6.962;2023-08-31T07:52:09;17.80;99.90
5899;DHT22;2975;50.956;6.962;2023-08-31T07:54:35;17.90;99.90
5899;DHT22;2975;50.956;6.962;2023-08-31T07:57:01;18.00;99.90
5899;DHT22;2975;50.956;6.962;2023-08-31T07:59:26;18.10;99.90
5899;DHT22;2975;50.956;6.962;2023-08-31T08:01:53;18.00;99.90
5899;DHT22;2975;50.956;6.962;2023-08-31T08:04:20;18.20;99.90
5899;DHT22;2975;50.956;6.962;2023-08-31T08:06:46;18.60;99.90
5899;DHT22;2975;50.956;6.962;2023-08-31T08:09:12;18.90;99.90
5899;DHT22;2975;50.956;6.962;2023-08-31T08:11:37;19.30;99.90
5899;DHT22;2975;50.956;6.962;2023-08-31T08:14:03;19.40;99.90
5899;DHT22;2975;50.956;6.962;2023-08-31T08:16:29;19.20;99.90
5899;DHT22;2975;50.956;6.962;2023-08-31T08:18:55;19.00;99.90
5899;DHT22;2975;50.956;6.962;2023-08-31T08:21:20;19.10;99.90
5899;DHT22;2975;50.956;6.962;2023-08-31T08:23:46;19.30;99.90
5899;DHT22;2975;50.956;6.962;2023-08-31T08:26:11;19.50;99.90
5899;DHT22;2975;50.956;6.962;2023-08-31T08:28:37;19.60;99.90
5899;DHT22;2975;50.956;6.962;2023-08-31T08:31:03;19.90;99.90
5899;DHT22;2975;50.956;6.962;2023-08-31T08:33:30;20.20;99.90
5899;DHT22;2975;50.956;6.962;2023-08-31T08:35:58;20.40;99.90
5899;DHT22;2975;50.956;6.962;2023-08-31T08:38:25;20.50;99.30
5899;DHT22;2975;50.956;6.962;2023-08-31T08:40:51;20.30;97.70
5899;DHT22;2975;50.956;6.962;2023-08-31T08:43:23;19.90;99.30
5899;DHT22;2975;50.956;6.962;2023-08-31T08:45:51;19.80;99.90
5899;DHT22;2975;50.956;6.962;2023-08-31T08:48:18;19.50;98.80
5899;DHT22;2975;50.956;6.962;2023-08-31T08:50:45;19.40;99.90
5899;DHT22;2975;50.956;6.962;2023-08-31T08:53:11;19.30;98.80
5899;DHT22;2975;50.956;6.962;2023-08-31T08:55:37;19.30;97.90
5899;DHT22;2975;50.956;6.962;2023-08-31T08:58:03;19.00;97.90
5899;DHT22;2975;50.956;6.962;2023-08-31T09:00:29;19.00;98.20
5899;DHT22;2975;50.956;6.962;2023-08-31T09:02:56;19.10;98.10
5899;DHT22;2975;50.956;6.962;2023-08-31T09:05:22;19.30;97.60
5899;DHT22;2975;50.956;6.962;2023-08-31T09:08:05;19.40;96.80
5899;DHT22;2975;50.956;6.962;2023-08-31T09:10:39;19.50;96.80
5899;DHT22;2975;50.956;6.962;2023-08-31T09:13:15;19.40;97.20
5899;DHT22;2975;50.956;6.962;2023-08-31T09:15:48;19.40;96.70
5899;DHT22;2975;50.956;6.962;2023-08-31T09:20:47;19.00;98.00
5899;DHT22;2975;50.956;6.962;2023-08-31T09:23:14;18.90;97.90
5899;DHT22;2975;50.956;6.962;2023-08-31T09:25:48;19.00;98.90
5899;DHT22;2975;50.956;6.962;2023-08-31T09:28:26;18.90;98.10
5899;DHT22;2975;50.956;6.962;2023-08-31T09:30:53;18.80;97.40
5899;DHT22;2975;50.956;6.962;2023-08-31T09:33:19;18.60;96.90
5899;DHT22;2975;50.956;6.962;2023-08-31T09:35:50;18.60;97.60
5899;DHT22;2975;50.956;6.962;2023-08-31T09:38:16;18.50;98.50
5899;DHT22;2975;50.956;6.962;2023-08-31T09:40:42;18.60;98.50
5899;DHT22;2975;50.956;6.962;2023-08-31T09:43:07;19.10;98.10
5899;DHT22;2975;50.956;6.962;2023-08-31T09:45:34;19.30;96.60
5899;DHT22;2975;50.956;6.962;2023-08-31T09:48:02;19.50;96.50
5899;DHT22;2975;50.956;6.962;2023-08-31T09:50:33;19.60;96.70
5899;DHT22;2975;50.956;6.962;2023-08-31T09:53:04;19.80;96.70
5899;DHT22;2975;50.956;6.962;2023-08-31T09:55:33;20.10;96.50
5899;DHT22;2975;50.956;6.962;2023-08-31T09:58:01;20.60;95.40
5899;DHT22;2975;50.956;6.962;2023-08-31T10:00:29;20.80;94.40
5899;DHT22;2975;50.956;6.962;2023-08-31T10:02:56;20.70;94.10
5899;DHT22;2975;50.956;6.962;2023-08-31T10:05:23;20.90;94.70
5899;DHT22;2975;50.956;6.962;2023-08-31T10:07:50;21.00;93.30
5899;DHT22;2975;50.956;6.962;2023-08-31T10:10:16;21.10;93.40
5899;DHT22;2975;50.956;6.962;2023-08-31T10:12:44;21.10;93.50
5899;DHT22;2975;50.956;6.962;2023-08-31T10:15:11;21.10;92.90
5899;DHT22;2975;50.956;6.962;2023-08-31T10:17:39;21.30;93.10
5899;DHT22;2975;50.956;6.962;2023-08-31T10:20:08;21.40;92.00
5899;DHT22;2975;50.956;6.962;2023-08-31T10:22:54;21.40;91.40
5899;DHT22;2975;50.956;6.962;2023-08-31T10:25:20;21.40;91.00
5899;DHT22;2975;50.956;6.962;2023-08-31T10:27:45;21.30;90.60
5899;DHT22;2975;50.956;6.962;2023-08-31T10:40:41;19.80;91.20
5899;DHT22;2975;50.956;6.962;2023-08-31T10:43:16;19.70;91.70
5899;DHT22;2975;50.956;6.962;2023-08-31T10:45:45;19.90;91.50
5899;DHT22;2975;50.956;6.962;2023-08-31T10:48:11;20.00;91.30
5899;DHT22;2975;50.956;6.962;2023-08-31T10:50:46;20.30;91.00
5899;DHT22;2975;50.956;6.962;2023-08-31T10:53:15;20.70;91.30
5899;DHT22;2975;50.956;6.962;2023-08-31T10:55:53;20.90;90.50
5899;DHT22;2975;50.956;6.962;2023-08-31T10:58:19;21.10;89.40
5899;DHT22;2975;50.956;6.962;2023-08-31T11:00:52;21.30;90.30
5899;DHT22;2975;50.956;6.962;2023-08-31T11:03:22;21.30;88.90
5899;DHT22;2975;50.956;6.962;2023-08-31T11:05:54;21.30;90.40
5899;DHT22;2975;50.956;6.962;2023-08-31T11:08:23;21.50;90.60
5899;DHT22;2975;50.956;6.962;2023-08-31T11:10:49;21.80;90.60
5899;DHT22;2975;50.956;6.962;2023-08-31T11:13:23;21.90;90.10
5899;DHT22;2975;50.956;6.962;2023-08-31T11:15:49;21.90;90.60
5899;DHT22;2975;50.956;6.962;2023-08-31T11:18:15;22.00;88.10
5899;DHT22;2975;50.956;6.962;2023-08-31T11:20:43;22.00;88.60
5899;DHT22;2975;50.956;6.962;2023-08-31T11:23:09;22.00;86.00
5899;DHT22;2975;50.956;6.962;2023-08-31T11:25:35;22.10;86.80
5899;DHT22;2975;50.956;6.962;2023-08-31T11:28:03;22.00;87.10
5899;DHT22;2975;50.956;6.962;2023-08-31T11:30:31;21.60;87.20
5899;DHT22;2975;50.956;6.962;2023-08-31T11:33:02;21.40;88.00
5899;DHT22;2975;50.956;6.962;2023-08-31T11:35:41;21.40;90.00
5899;DHT22;2975;50.956;6.962;2023-08-31T11:38:07;21.30;90.30
5899;DHT22;2975;50.956;6.962;2023-08-31T11:40:33;21.20;90.30
5899;DHT22;2975;50.956;6.962;2023-08-31T11:42:59;21.20;90.90
5899;DHT22;2975;50.956;6.962;2023-08-31T11:45:34;21.20;90.90
5899;DHT22;2975;50.956;6.962;2023-08-31T11:48:01;21.30;91.40
5899;DHT22;2975;50.956;6.962;2023-08-31T11:50:28;21.30;92.00
5899;DHT22;2975;50.956;6.962;2023-08-31T11:52:54;21.10;92.80
5899;DHT22;2975;50.956;6.962;2023-08-31T11:55:20;20.90;93.10
5899;DHT22;2975;50.956;6.962;2023-08-31T11:57:53;20.60;93.30
5899;DHT22;2975;50.956;6.962;2023-08-31T12:00:22;20.50;94.10
5899;DHT22;2975;50.956;6.962;2023-08-31T12:02:56;20.40;94.20
5899;DHT22;2975;50.956;6.962;2023-08-31T12:05:22;20.40;94.10
5899;DHT22;2975;50.956;6.962;2023-08-31T12:07:48;20.40;93.30
5899;DHT22;2975;50.956;6.962;2023-08-31T12:10:14;20.50;92.60
5899;DHT22;2975;50.956;6.962;2023-08-31T12:12:40;20.50;91.10
5899;DHT22;2975;50.956;6.962;2023-08-31T12:15:06;20.50;90.80
5899;DHT22;2975;50.956;6.962;2023-08-31T12:17:32;20.70;90.60
5899;DHT22;2975;50.956;6.962;2023-08-31T12:20:03;20.80;90.40
5899;DHT22;2975;50.956;6.962;2023-08-31T12:22:30;20.80;91.30
5899;DHT22;2975;50.956;6.962;2023-08-31T12:24:56;20.90;91.10
5899;DHT22;2975;50.956;6.962;2023-08-31T12:27:21;20.90;90.90
5899;DHT22;2975;50.956;6.962;2023-08-31T12:29:47;20.90;91.10
5899;DHT22;2975;50.956;6.962;2023-08-31T12:32:13;20.90;91.60
5899;DHT22;2975;50.956;6.962;2023-08-31T12:34:39;20.90;92.40
5899;DHT22;2975;50.956;6.962;2023-08-31T12:37:05;20.80;92.80
5899;DHT22;2975;50.956;6.962;2023-08-31T12:39:31;20.80;93.50
5899;DHT22;2975;50.956;6.962;2023-08-31T12:41:57;20.70;94.30
5899;DHT22;2975;50.956;6.962;2023-08-31T12:44:23;20.30;95.00
5899;DHT22;2975;50.956;6.962;2023-08-31T12:46:51;20.10;95.20
5899;DHT22;2975;50.956;6.962;2023-08-31T12:49:16;20.00;96.30
5899;DHT22;2975;50.956;6.962;2023-08-31T12:51:42;19.90;96.20
5899;DHT22;2975;50.956;6.962;2023-08-31T12:54:09;19.90;96.30
5899;DHT22;2975;50.956;6.962;2023-08-31T12:56:35;19.90;97.00
5899;DHT22;2975;50.956;6.962;2023-08-31T12:59:00;19.90;94.30
5899;DHT22;2975;50.956;6.962;2023-08-31T13:01:26;20.00;95.00
5899;DHT22;2975;50.956;6.962;2023-08-31T13:03:52;20.20;94.40
5899;DHT22;2975;50.956;6.962;2023-08-31T13:06:18;20.50;94.40
5899;DHT22;2975;50.956;6.962;2023-08-31T13:08:44;20.50;93.20
5899;DHT22;2975;50.956;6.962;2023-08-31T13:11:11;20.50;92.80
5899;DHT22;2975;50.956;6.962;2023-08-31T13:13:38;20.80;92.60
5899;DHT22;2975;50.956;6.962;2023-08-31T13:16:04;21.00;92.70
5899;DHT22;2975;50.956;6.962;2023-08-31T13:18:29;21.20;91.60
5899;DHT22;2975;50.956;6.962;2023-08-31T13:20:55;21.30;92.20
5899;DHT22;2975;50.956;6.962;2023-08-31T13:23:22;21.30;91.60
5899;DHT22;2975;50.956;6.962;2023-08-31T13:25:48;21.50;91.60
5899;DHT22;2975;50.956;6.962;2023-08-31T13:28:14;21.40;91.30
5899;DHT22;2975;50.956;6.962;2023-08-31T13:30:40;21.40;91.90
5899;DHT22;2975;50.956;6.962;2023-08-31T13:33:06;21.40;92.20
5899;DHT22;2975;50.956;6.962;2023-08-31T13:35:32;21.70;92.00
5899;DHT22;2975;50.956;6.962;2023-08-31T13:37:58;21.90;92.30
5899;DHT22;2975;50.956;6.962;2023-08-31T13:40:24;22.10;92.00
5899;DHT22;2975;50.956;6.962;2023-08-31T13:42:57;22.20;91.10
5899;DHT22;2975;50.956;6.962;2023-08-31T13:45:26;22.20;91.10
5899;DHT22;2975;50.956;6.962;2023-08-31T13:47:53;22.10;91.30
5899;DHT22;2975;50.956;6.962;2023-08-31T13:50:18;22.00;91.70
5899;DHT22;2975;50.956;6.962;2023-08-31T13:52:44;21.80;92.30
5899;DHT22;2975;50.956;6.962;2023-08-31T13:55:10;21.70;93.10
5899;DHT22;2975;50.956;6.962;2023-08-31T13:57:35;21.60;92.80
5899;DHT22;2975;50.956;6.962;2023-08-31T14:00:02;21.50;93.00
5899;DHT22;2975;50.956;6.962;2023-08-31T14:02:29;21.40;92.90
5899;DHT22;2975;50.956;6.962;2023-08-31T14:04:56;21.40;93.50
5899;DHT22;2975;50.956;6.962;2023-08-31T14:07:22;21.40;91.60
5899;DHT22;2975;50.956;6.962;2023-08-31T14:09:47;21.30;91.40
5899;DHT22;2975;50.956;6.962;2023-08-31T14:12:13;21.20;90.70
5899;DHT22;2975;50.956;6.962;2023-08-31T14:14:39;21.20;91.50
5899;DHT22;2975;50.956;6.962;2023-08-31T14:17:06;21.20;92.20
5899;DHT22;2975;50.956;6.962;2023-08-31T14:19:33;21.30;93.40
5899;DHT22;2975;50.956;6.962;2023-08-31T14:22:01;21.30;92.20
5899;DHT22;2975;50.956;6.962;2023-08-31T14:24:29;21.20;91.50
5899;DHT22;2975;50.956;6.962;2023-08-31T14:26:55;21.10;91.70
5899;DHT22;2975;50.956;6.962;2023-08-31T14:29:20;21.00;92.30
5899;DHT22;2975;50.956;6.962;2023-08-31T14:31:46;21.00;91.60
5899;DHT22;2975;50.956;6.962;2023-08-31T14:34:12;21.10;91.40
5899;DHT22;2975;50.956;6.962;2023-08-31T14:36:37;21.30;91.00
5899;DHT22;2975;50.956;6.962;2023-08-31T14:39:03;21.30;90.80
5899;DHT22;2975;50.956;6.962;2023-08-31T14:41:30;21.40;90.20
5899;DHT22;2975;50.956;6.962;2023-08-31T14:43:56;21.50;90.40
5899;DHT22;2975;50.956;6.962;2023-08-31T14:46:21;21.50;90.10
5899;DHT22;2975;50.956;6.962;2023-08-31T14:48:47;21.50;90.20
5899;DHT22;2975;50.956;6.962;2023-08-31T14:51:13;21.50;91.10
5899;DHT22;2975;50.956;6.962;2023-08-31T14:53:39;21.50;90.60
5899;DHT22;2975;50.956;6.962;2023-08-31T14:56:05;21.40;90.60
5899;DHT22;2975;50.956;6.962;2023-08-31T14:58:31;21.30;90.70
5899;DHT22;2975;50.956;6.962;2023-08-31T15:00:57;21.30;90.80
5899;DHT22;2975;50.956;6.962;2023-08-31T15:03:23;21.30;90.80
5899;DHT22;2975;50.956;6.962;2023-08-31T15:05:49;21.40;90.70
5899;DHT22;2975;50.956;6.962;2023-08-31T15:08:16;21.50;90.10
5899;DHT22;2975;50.956;6.962;2023-08-31T15:10:41;21.60;90.40
5899;DHT22;2975;50.956;6.962;2023-08-31T15:13:07;21.70;89.70
5899;DHT22;2975;50.956;6.962;2023-08-31T15:15:33;21.60;89.00
5899;DHT22;2975;50.956;6.962;2023-08-31T15:17:59;21.70;89.50
5899;DHT22;2975;50.956;6.962;2023-08-31T15:20:26;21.80;89.70
5899;DHT22;2975;50.956;6.962;2023-08-31T15:22:53;21.70;87.70
5899;DHT22;2975;50.956;6.962;2023-08-31T15:25:19;21.70;88.30
5899;DHT22;2975;50.956;6.962;2023-08-31T15:27:44;21.70;89.50
5899;DHT22;2975;50.956;6.962;2023-08-31T15:30:10;21.70;89.60
5899;DHT22;2975;50.956;6.962;2023-08-31T15:32:36;21.60;89.60
5899;DHT22;2975;50.956;6.962;2023-08-31T15:35:03;21.60;90.00
5899;DHT22;2975;50.956;6.962;2023-08-31T15:37:29;21.40;88.30
5899;DHT22;2975;50.956;6.962;2023-08-31T15:39:54;21.20;88.00
5899;DHT22;2975;50.956;6.962;2023-08-31T15:42:22;21.20;89.10
5899;DHT22;2975;50.956;6.962;2023-08-31T15:44:50;21.10;89.40
5899;DHT22;2975;50.956;6.962;2023-08-31T15:47:18;20.80;88.40
5899;DHT22;2975;50.956;6.962;2023-08-31T15:49:43;20.70;89.60
5899;DHT22;2975;50.956;6.962;2023-08-31T15:52:09;20.70;89.90
5899;DHT22;2975;50.956;6.962;2023-08-31T15:54:35;20.70;90.40
5899;DHT22;2975;50.956;6.962;2023-08-31T15:57:00;20.70;91.40
5899;DHT22;2975;50.956;6.962;2023-08-31T15:59:26;20.60;90.00
5899;DHT22;2975;50.956;6.962;2023-08-31T16:01:51;20.50;90.00
5899;DHT22;2975;50.956;6.962;2023-08-31T16:04:17;20.50;90.00
5899;DHT22;2975;50.956;6.962;2023-08-31T16:06:42;20.40;90.30
5899;DHT22;2975;50.956;6.962;2023-08-31T16:09:11;20.40;89.90
5899;DHT22;2975;50.956;6.962;2023-08-31T16:11:38;20.40;90.20
5899;DHT22;2975;50.956;6.962;2023-08-31T16:14:04;20.30;90.40
5899;DHT22;2975;50.956;6.962;2023-08-31T16:16:29;20.20;90.80
5899;DHT22;2975;50.956;6.962;2023-08-31T16:18:55;20.20;91.40
5899;DHT22;2975;50.956;6.962;2023-08-31T16:21:21;20.10;91.70